Time;durP1;ratioP1;P1;durP2;ratioP2;P2;SDS_P1;SDS_P2;PMS_P1;PMS_P2;Temp;Humidity;BMP_temperature;BMP_pressure;BME280_temperature;BME280_humidity;BME280_pressure;Samples;Min_cycle;Max_cycle;Signal;HPM_P1;HPM_P2
2023/07/23 00:00:59;;;;;;;3.90;2.60;;;22.10;56.50;;;;;;5069993;28;20060;-49
2023/07/23 00:03:26;;;;;;;5.68;2.90;;;22.10;56.80;;;;;;5053826;28;20445;-50
2023/07/23 00:05:57;;;;;;;3.35;2.58;;;22.00;56.50;;;;;;5070791;28;20044;-50
2023/07/23 00:08:24;;;;;;;4.38;3.15;;;22.00;56.50;;;;;;5068785;28;20063;-48
2023/07/23 00:10:56;;;;;;;6.18;2.67;;;22.00;56.70;;;;;;5069713;28;20120;-48
2023/07/23 00:13:24;;;;;;;4.22;3.35;;;22.00;57.10;;;;;;5070654;28;20446;-48
2023/07/23 00:15:52;;;;;;;6.47;2.83;;;22.00;56.10;;;;;;5066954;28;20130;-48
2023/07/23 00:18:22;;;;;;;7.10;3.00;;;22.00;56.10;;;;;;5070381;28;20044;-49
2023/07/23 00:20:52;;;;;;;5.03;2.72;;;22.00;55.90;;;;;;5070077;28;20573;-51
2023/07/23 00:23:21;;;;;;;4.18;2.80;;;22.00;55.90;;;;;;5069577;28;20524;-49
2023/07/23 00:25:50;;;;;;;6.53;3.05;;;22.00;55.80;;;;;;5069742;28;20072;-47
2023/07/23 00:28:21;;;;;;;6.03;3.10;;;22.00;55.40;;;;;;5071004;28;20060;-49
2023/07/23 00:30:50;;;;;;;2.88;2.65;;;22.00;55.60;;;;;;5068951;28;20135;-50
2023/07/23 00:33:23;;;;;;;5.15;2.72;;;22.00;55.70;;;;;;5070896;28;20039;-51
2023/07/23 00:35:50;;;;;;;4.32;2.80;;;22.00;55.50;;;;;;5070055;28;20094;-50
2023/07/23 00:38:16;;;;;;;5.97;3.03;;;22.00;55.20;;;;;;5050488;28;20620;-49
2023/07/23 00:40:43;;;;;;;5.63;3.00;;;22.00;55.20;;;;;;5069770;28;20486;-48
2023/07/23 00:43:16;;;;;;;3.72;3.15;;;21.90;55.00;;;;;;5052552;28;20051;-50
2023/07/23 00:45:45;;;;;;;3.88;3.17;;;21.90;54.50;;;;;;5069722;28;20032;-50
2023/07/23 00:48:12;;;;;;;4.22;2.92;;;21.90;54.70;;;;;;5050059;28;20047;-49
2023/07/23 00:50:38;;;;;;;3.47;3.13;;;21.90;54.50;;;;;;5069656;28;20041;-47
2023/07/23 00:53:08;;;;;;;4.72;3.05;;;21.90;54.60;;;;;;5070579;28;20495;-47
2023/07/23 00:55:35;;;;;;;5.68;2.65;;;21.90;54.50;;;;;;5070304;28;20049;-46
2023/07/23 00:58:02;;;;;;;7.38;2.97;;;21.80;54.40;;;;;;5067723;28;20101;-47
2023/07/23 01:00:29;;;;;;;6.05;3.58;;;21.80;54.40;;;;;;5066287;28;20040;-47
2023/07/23 01:02:56;;;;;;;6.38;3.75;;;21.80;54.10;;;;;;5070093;28;20113;-50
2023/07/23 01:05:25;;;;;;;5.22;3.20;;;21.80;54.00;;;;;;5070092;28;20048;-47
2023/07/23 01:07:52;;;;;;;6.65;3.45;;;21.80;54.00;;;;;;5066465;28;20399;-48
2023/07/23 01:10:20;;;;;;;4.32;3.50;;;21.80;54.10;;;;;;5068987;28;20040;-49
2023/07/23 01:12:58;;;;;;;4.93;3.45;;;21.80;54.10;;;;;;5068819;28;20066;-49
2023/07/23 01:15:27;;;;;;;5.97;4.22;;;21.80;54.00;;;;;;5052562;28;20407;-47
2023/07/23 01:17:59;;;;;;;5.25;3.45;;;21.80;53.90;;;;;;5043930;28;20040;-48
2023/07/23 01:20:26;;;;;;;9.05;3.95;;;21.70;53.80;;;;;;5068544;28;20681;-46
2023/07/23 01:22:57;;;;;;;3.33;3.03;;;21.70;53.60;;;;;;5069967;28;20047;-50
2023/07/23 01:25:24;;;;;;;5.40;4.03;;;21.70;53.70;;;;;;5049931;28;20423;-46
2023/07/23 01:27:53;;;;;;;4.93;3.40;;;21.70;53.50;;;;;;5051781;28;20064;-47
2023/07/23 01:30:20;;;;;;;5.05;3.92;;;21.70;53.40;;;;;;5048880;28;20589;-50
2023/07/23 01:32:47;;;;;;;6.72;3.55;;;21.70;53.30;;;;;;5069785;28;20041;-46
2023/07/23 01:35:16;;;;;;;6.80;3.65;;;21.70;53.50;;;;;;5049041;28;20061;-47
2023/07/23 01:37:47;;;;;;;4.25;3.85;;;21.70;53.60;;;;;;5047135;28;20032;-50
2023/07/23 01:40:17;;;;;;;4.85;3.42;;;21.70;53.70;;;;;;5063344;28;20102;-50
2023/07/23 01:42:44;;;;;;;5.28;3.40;;;21.70;53.50;;;;;;5063712;28;20391;-45
2023/07/23 01:45:13;;;;;;;4.20;3.75;;;21.70;53.40;;;;;;5067696;28;20037;-46
2023/07/23 01:47:42;;;;;;;5.43;3.83;;;21.70;53.60;;;;;;5046963;28;20045;-47
2023/07/23 01:50:13;;;;;;;4.35;3.20;;;21.60;53.30;;;;;;5068110;28;20147;-48
2023/07/23 01:52:42;;;;;;;5.72;3.92;;;21.60;53.30;;;;;;5069493;28;20086;-49
2023/07/23 01:55:12;;;;;;;6.85;3.22;;;21.60;53.30;;;;;;5050099;28;20402;-48
2023/07/23 01:57:49;;;;;;;4.97;3.65;;;21.60;52.90;;;;;;5066918;28;20068;-50
2023/07/23 02:00:19;;;;;;;4.03;3.63;;;21.60;52.80;;;;;;5049191;28;20041;-49
2023/07/23 02:02:49;;;;;;;5.45;3.67;;;21.60;52.60;;;;;;5069601;28;20042;-50
2023/07/23 02:05:21;;;;;;;6.40;4.00;;;21.60;52.60;;;;;;5066192;28;20469;-50
2023/07/23 02:07:56;;;;;;;5.28;3.88;;;21.60;52.20;;;;;;5068692;28;20048;-50
2023/07/23 02:10:26;;;;;;;4.72;3.55;;;21.60;52.50;;;;;;5053161;28;20136;-47
2023/07/23 02:12:53;;;;;;;4.25;3.35;;;21.60;52.50;;;;;;5068104;28;20120;-50
2023/07/23 02:15:19;;;;;;;4.63;3.35;;;21.50;52.60;;;;;;5072701;28;20126;-50
2023/07/23 02:17:51;;;;;;;4.40;4.00;;;21.60;52.70;;;;;;5052890;28;20044;-46
2023/07/23 02:20:19;;;;;;;4.40;3.70;;;21.50;52.40;;;;;;5068914;28;20036;-47
2023/07/23 02:22:49;;;;;;;4.40;3.90;;;21.50;52.20;;;;;;5055377;28;20072;-47
2023/07/23 02:25:15;;;;;;;5.78;3.42;;;21.50;52.20;;;;;;5054791;28;20040;-52
2023/07/23 02:27:45;;;;;;;4.57;3.67;;;21.50;52.10;;;;;;5070975;28;20049;-48
2023/07/23 02:30:11;;;;;;;4.38;3.70;;;21.50;52.20;;;;;;5053444;28;20110;-48
2023/07/23 02:32:42;;;;;;;4.85;3.53;;;21.50;52.10;;;;;;5067622;28;20040;-47
2023/07/23 02:35:09;;;;;;;4.00;3.60;;;21.60;52.20;;;;;;5073072;28;20102;-49
2023/07/23 02:37:35;;;;;;;5.28;3.75;;;21.60;51.60;;;;;;5072875;28;20044;-50
2023/07/23 02:40:03;;;;;;;4.68;3.92;;;21.60;51.60;;;;;;5102022;22;20047;-51
2023/07/23 02:42:30;;;;;;;3.85;3.17;;;21.60;51.50;;;;;;5107176;28;20047;-52
2023/07/23 02:44:59;;;;;;;4.30;3.38;;;21.60;51.60;;;;;;5107793;28;20044;-51
2023/07/23 02:47:28;;;;;;;4.10;3.33;;;21.60;51.20;;;;;;5105261;28;20086;-54
2023/07/23 02:49:57;;;;;;;4.38;3.83;;;21.60;51.10;;;;;;5093174;28;20040;-53
2023/07/23 02:52:24;;;;;;;4.10;3.70;;;21.60;51.00;;;;;;5073433;28;20068;-51
2023/07/23 02:54:50;;;;;;;4.85;3.67;;;21.60;50.80;;;;;;5090298;28;20051;-53
2023/07/23 02:57:17;;;;;;;4.88;3.67;;;21.60;50.50;;;;;;5073168;28;20056;-49
2023/07/23 02:59:44;;;;;;;3.72;3.33;;;21.60;50.40;;;;;;5070751;28;20148;-47
2023/07/23 03:02:12;;;;;;;4.47;2.97;;;21.60;50.20;;;;;;5073552;28;20120;-52
2023/07/23 03:04:43;;;;;;;3.85;3.40;;;21.60;50.20;;;;;;5074829;28;20068;-51
2023/07/23 03:07:13;;;;;;;3.78;3.45;;;21.60;50.10;;;;;;5090442;28;20105;-52
2023/07/23 03:09:43;;;;;;;4.93;3.38;;;21.60;49.80;;;;;;5088500;28;20036;-48
2023/07/23 03:12:10;;;;;;;3.90;3.15;;;21.60;49.60;;;;;;5072079;28;20456;-52
2023/07/23 03:14:42;;;;;;;4.10;3.28;;;21.60;49.60;;;;;;5085217;28;20040;-51
2023/07/23 03:17:08;;;;;;;3.45;2.90;;;21.70;49.50;;;;;;5072890;28;20131;-48
2023/07/23 03:19:38;;;;;;;3.30;3.00;;;21.70;49.40;;;;;;5088242;28;20044;-50
2023/07/23 03:22:07;;;;;;;4.60;3.38;;;21.70;49.20;;;;;;5091562;28;20131;-50
2023/07/23 03:24:35;;;;;;;3.08;2.67;;;21.70;49.20;;;;;;5069738;28;20047;-48
2023/07/23 03:27:02;;;;;;;3.50;3.20;;;21.70;49.10;;;;;;5068882;28;20117;-48
2023/07/23 03:29:28;;;;;;;4.00;3.47;;;21.70;48.90;;;;;;5085235;28;20036;-51
2023/07/23 03:31:56;;;;;;;3.38;3.08;;;21.70;49.00;;;;;;5091900;28;20082;-51
2023/07/23 03:34:25;;;;;;;3.55;2.72;;;21.70;48.90;;;;;;5092845;28;20070;-52
2023/07/23 03:36:54;;;;;;;5.68;3.30;;;21.70;49.10;;;;;;5073889;28;20072;-48
2023/07/23 03:39:21;;;;;;;4.03;2.85;;;21.70;48.90;;;;;;5069280;28;20105;-53
2023/07/23 03:41:48;;;;;;;3.20;2.90;;;21.80;49.10;;;;;;5091544;28;20109;-50
2023/07/23 03:44:14;;;;;;;4.82;2.95;;;21.80;48.80;;;;;;5074424;28;20135;-53
2023/07/23 03:46:47;;;;;;;3.72;3.22;;;21.80;48.90;;;;;;5069146;28;20139;-52
2023/07/23 03:49:14;;;;;;;2.90;2.58;;;21.80;48.70;;;;;;5091549;28;20101;-50
2023/07/23 03:51:41;;;;;;;3.80;2.80;;;21.80;48.60;;;;;;5085805;28;20040;-53
2023/07/23 03:54:10;;;;;;;3.95;2.92;;;21.80;48.60;;;;;;5091717;28;20040;-50
2023/07/23 03:56:36;;;;;;;6.85;3.50;;;21.80;48.70;;;;;;5087019;28;20567;-50
2023/07/23 03:59:08;;;;;;;4.53;2.85;;;21.80;48.50;;;;;;5069557;28;20044;-49
2023/07/23 04:01:34;;;;;;;3.70;2.95;;;21.80;48.50;;;;;;5070825;28;20076;-52
2023/07/23 04:04:01;;;;;;;4.53;3.05;;;21.80;48.50;;;;;;5092918;28;20445;-48
2023/07/23 04:06:29;;;;;;;3.17;2.88;;;21.80;48.50;;;;;;5071561;28;20570;-49
2023/07/23 04:08:58;;;;;;;3.58;3.28;;;21.80;48.60;;;;;;5073391;28;20044;-49
2023/07/23 04:11:25;;;;;;;3.22;2.92;;;21.80;48.20;;;;;;5067587;28;20434;-51
2023/07/23 04:13:52;;;;;;;4.18;3.20;;;21.80;48.20;;;;;;5090970;28;20043;-48
2023/07/23 04:16:22;;;;;;;5.07;2.65;;;21.80;48.20;;;;;;5073203;28;20044;-48
2023/07/23 04:18:54;;;;;;;3.90;3.15;;;21.80;48.20;;;;;;5086260;28;20059;-54
2023/07/23 04:21:23;;;;;;;3.78;2.65;;;21.80;48.50;;;;;;5072211;28;20044;-48
2023/07/23 04:23:55;;;;;;;4.65;2.85;;;21.80;48.20;;;;;;5074191;28;20048;-49
2023/07/23 04:26:22;;;;;;;2.95;2.33;;;21.80;48.20;;;;;;5091167;28;20040;-49
2023/07/23 04:28:51;;;;;;;4.88;3.10;;;21.80;48.10;;;;;;5064883;28;20524;-51
2023/07/23 04:31:20;;;;;;;2.60;2.40;;;21.80;48.70;;;;;;5068821;28;20068;-50
2023/07/23 04:33:47;;;;;;;5.10;3.17;;;21.80;48.10;;;;;;5073998;28;20089;-47
2023/07/23 04:36:17;;;;;;;5.63;2.90;;;21.80;48.10;;;;;;5072501;28;20040;-52
2023/07/23 04:38:46;;;;;;;4.20;2.78;;;21.80;48.10;;;;;;5069899;28;20044;-52
2023/07/23 04:41:13;;;;;;;2.72;2.40;;;21.80;48.10;;;;;;5072198;28;20132;-49
2023/07/23 04:43:44;;;;;;;3.63;2.47;;;21.80;48.10;;;;;;5084938;28;20160;-48
2023/07/23 04:46:11;;;;;;;2.75;2.55;;;21.80;48.00;;;;;;5086894;28;20059;-48
2023/07/23 04:48:41;;;;;;;4.40;2.75;;;21.80;48.00;;;;;;5088078;28;20451;-52
2023/07/23 04:51:08;;;;;;;5.00;2.30;;;21.80;48.10;;;;;;5089819;28;20075;-50
2023/07/23 04:53:37;;;;;;;4.32;3.17;;;21.80;47.80;;;;;;5087322;28;20048;-53
2023/07/23 04:56:04;;;;;;;2.90;2.60;;;21.80;48.10;;;;;;5088234;28;20062;-49
2023/07/23 04:58:32;;;;;;;4.05;2.53;;;21.90;47.90;;;;;;5082118;28;20532;-52
2023/07/23 05:01:06;;;;;;;3.40;2.67;;;21.90;48.00;;;;;;5086807;28;20117;-51
2023/07/23 05:03:33;;;;;;;2.55;2.35;;;21.90;47.80;;;;;;5089859;28;20089;-51
2023/07/23 05:06:03;;;;;;;2.80;2.33;;;21.90;47.90;;;;;;5089045;28;20047;-51
2023/07/23 05:08:31;;;;;;;2.47;2.28;;;21.90;47.90;;;;;;5084663;28;20089;-48
2023/07/23 05:11:04;;;;;;;2.97;2.22;;;21.90;47.90;;;;;;5089319;28;20044;-48
2023/07/23 05:13:35;;;;;;;4.45;2.35;;;21.90;48.10;;;;;;5089772;28;20086;-48
2023/07/23 05:16:02;;;;;;;2.40;2.20;;;21.90;48.10;;;;;;5067428;28;20037;-48
2023/07/23 05:18:33;;;;;;;2.38;2.17;;;21.90;48.10;;;;;;5084299;28;20449;-50
2023/07/23 05:21:02;;;;;;;4.15;2.35;;;21.90;48.10;;;;;;5072568;28;20685;-51
2023/07/23 05:23:31;;;;;;;3.33;2.20;;;21.90;47.90;;;;;;5082769;28;20527;-48
2023/07/23 05:25:58;;;;;;;3.20;2.22;;;22.00;48.00;;;;;;5089914;28;20083;-50
2023/07/23 05:28:27;;;;;;;2.85;2.13;;;22.00;47.90;;;;;;5084033;28;20064;-49
2023/07/23 05:30:59;;;;;;;3.15;2.25;;;22.00;47.80;;;;;;5086195;28;20085;-51
2023/07/23 05:33:26;;;;;;;2.40;2.17;;;22.00;48.00;;;;;;5089882;28;20501;-50
2023/07/23 05:35:54;;;;;;;3.95;1.95;;;22.00;48.10;;;;;;5089683;28;20036;-50
2023/07/23 05:38:25;;;;;;;3.30;1.95;;;22.00;48.10;;;;;;5083898;28;20119;-50
2023/07/23 05:40:56;;;;;;;2.92;2.00;;;22.10;47.90;;;;;;5089538;28;20036;-48
2023/07/23 05:43:23;;;;;;;2.03;1.55;;;22.10;48.10;;;;;;5090324;28;20529;-52
2023/07/23 05:45:54;;;;;;;3.83;2.20;;;22.10;48.10;;;;;;5089863;28;20066;-49
2023/07/23 05:48:23;;;;;;;2.10;1.90;;;22.10;48.00;;;;;;5080223;28;20452;-54
2023/07/23 05:50:54;;;;;;;1.80;1.70;;;22.20;48.00;;;;;;5088787;28;20101;-56
2023/07/23 05:53:21;;;;;;;3.47;2.10;;;22.20;48.00;;;;;;5088656;28;20597;-57
2023/07/23 05:55:49;;;;;;;2.45;1.75;;;22.20;48.10;;;;;;5086703;28;20459;-56
2023/07/23 05:58:17;;;;;;;2.78;2.08;;;22.20;47.80;;;;;;5086814;28;20597;-57
2023/07/23 06:00:47;;;;;;;3.30;2.00;;;22.20;47.90;;;;;;5084355;28;20084;-53
2023/07/23 06:03:14;;;;;;;1.95;1.60;;;22.20;47.90;;;;;;5088460;28;20044;-56
2023/07/23 06:05:44;;;;;;;2.47;2.28;;;22.20;47.80;;;;;;5080409;28;20581;-56
2023/07/23 06:08:10;;;;;;;2.95;1.90;;;22.20;47.90;;;;;;5087358;28;20063;-55
2023/07/23 06:10:37;;;;;;;4.80;1.85;;;22.20;47.80;;;;;;5086329;28;20135;-57
2023/07/23 06:13:04;;;;;;;2.47;1.85;;;22.30;47.80;;;;;;5087311;28;20081;-54
2023/07/23 06:15:32;;;;;;;2.45;1.80;;;22.30;47.60;;;;;;5082271;28;20471;-55
2023/07/23 06:17:59;;;;;;;3.55;1.67;;;22.30;47.60;;;;;;5088949;28;20052;-56
2023/07/23 06:20:29;;;;;;;1.92;1.63;;;22.30;47.70;;;;;;5081933;28;20040;-57
2023/07/23 06:22:58;;;;;;;4.72;1.92;;;22.40;47.70;;;;;;5067033;28;20373;-57
2023/07/23 06:25:24;;;;;;;1.95;1.80;;;22.40;47.80;;;;;;5077297;28;20123;-55
2023/07/23 06:27:51;;;;;;;2.63;2.10;;;22.40;48.00;;;;;;5090270;28;20048;-58
2023/07/23 06:30:18;;;;;;;2.67;2.20;;;22.40;47.80;;;;;;5084457;28;20126;-53
2023/07/23 06:32:44;;;;;;;2.10;2.00;;;22.40;47.80;;;;;;5090086;28;20136;-58
2023/07/23 06:35:11;;;;;;;2.63;1.80;;;22.50;48.00;;;;;;5088450;28;20126;-56
2023/07/23 06:37:40;;;;;;;3.53;2.20;;;22.50;47.80;;;;;;5070079;28;20048;-59
2023/07/23 06:40:08;;;;;;;3.28;2.20;;;22.50;47.70;;;;;;5079786;28;20123;-55
2023/07/23 06:42:34;;;;;;;2.25;2.05;;;22.60;47.60;;;;;;5089001;28;20131;-57
2023/07/23 06:45:01;;;;;;;11.77;2.72;;;22.60;47.80;;;;;;5087938;28;20125;-56
2023/07/23 06:47:28;;;;;;;2.83;2.47;;;22.60;47.50;;;;;;5086322;28;20095;-57
2023/07/23 06:49:55;;;;;;;3.33;2.17;;;22.60;47.60;;;;;;5088212;28;20044;-56
2023/07/23 06:52:21;;;;;;;4.88;2.38;;;22.60;47.40;;;;;;5088777;28;20127;-58
2023/07/23 06:54:48;;;;;;;2.80;2.28;;;22.60;47.60;;;;;;5083381;28;20045;-55
2023/07/23 06:57:14;;;;;;;4.10;2.20;;;22.60;47.90;;;;;;5085147;28;20127;-58
2023/07/23 06:59:41;;;;;;;2.55;2.20;;;22.60;47.50;;;;;;5084207;28;20729;-58
2023/07/23 07:02:08;;;;;;;3.78;2.10;;;22.60;47.50;;;;;;5093411;28;20068;-54
2023/07/23 07:04:37;;;;;;;2.97;2.10;;;22.60;47.80;;;;;;5092004;28;20036;-58
2023/07/23 07:07:04;;;;;;;3.38;2.28;;;22.50;48.30;;;;;;5089705;28;20064;-58
2023/07/23 07:09:31;;;;;;;2.47;2.05;;;22.50;47.80;;;;;;5089994;28;20119;-58
2023/07/23 07:11:58;;;;;;;2.65;1.92;;;22.50;47.90;;;;;;5073599;28;20047;-57
2023/07/23 07:14:24;;;;;;;2.42;2.05;;;22.50;48.20;;;;;;5092651;28;20123;-58
2023/07/23 07:16:51;;;;;;;2.85;2.28;;;22.40;48.10;;;;;;5089843;28;20059;-56
2023/07/23 07:19:17;;;;;;;2.45;1.95;;;22.40;48.90;;;;;;5089280;28;20107;-56
2023/07/23 07:21:44;;;;;;;3.03;2.72;;;22.40;48.50;;;;;;5087310;28;20522;-57
2023/07/23 07:24:12;;;;;;;2.15;1.95;;;22.40;48.50;;;;;;5092648;28;20051;-56
2023/07/23 07:26:39;;;;;;;1.98;1.77;;;22.40;48.90;;;;;;5092476;28;20748;-55
2023/07/23 07:29:05;;;;;;;3.22;2.20;;;22.30;48.80;;;;;;5080471;28;20080;-56
2023/07/23 07:31:32;;;;;;;3.70;2.08;;;22.30;49.00;;;;;;5091525;28;20417;-54
2023/07/23 07:33:59;;;;;;;3.65;2.22;;;22.20;49.20;;;;;;5084912;28;20088;-55
2023/07/23 07:36:25;;;;;;;2.47;1.88;;;22.20;49.50;;;;;;5092229;28;20047;-58
2023/07/23 07:38:52;;;;;;;2.42;1.73;;;22.20;49.80;;;;;;5089321;28;20124;-55
2023/07/23 07:41:19;;;;;;;8.07;2.08;;;22.20;50.00;;;;;;5086599;28;20055;-56
2023/07/23 07:43:45;;;;;;;2.67;2.08;;;22.20;50.60;;;;;;5089967;28;20795;-57
2023/07/23 07:46:12;;;;;;;2.50;1.95;;;22.10;50.90;;;;;;5085618;28;20036;-53
2023/07/23 07:48:40;;;;;;;3.13;2.08;;;22.10;51.50;;;;;;5082879;28;20048;-55
2023/07/23 07:51:07;;;;;;;3.20;2.65;;;22.10;52.20;;;;;;5081854;28;20071;-57
2023/07/23 07:53:37;;;;;;;3.08;2.00;;;22.10;53.10;;;;;;5085391;28;20199;-55
2023/07/23 07:56:04;;;;;;;3.63;2.33;;;22.10;53.30;;;;;;5086080;28;20044;-56
2023/07/23 07:58:34;;;;;;;2.20;2.00;;;22.00;53.30;;;;;;5087820;28;20093;-55
2023/07/23 08:01:03;;;;;;;2.97;2.35;;;22.00;53.80;;;;;;5089994;28;20040;-55
2023/07/23 08:03:35;;;;;;;2.45;2.20;;;21.90;54.60;;;;;;5090977;28;20040;-55
2023/07/23 08:06:03;;;;;;;3.60;2.13;;;21.90;54.60;;;;;;5090878;28;20107;-56
2023/07/23 08:08:36;;;;;;;3.75;2.10;;;21.90;54.80;;;;;;5068038;28;20037;-57
2023/07/23 08:11:08;;;;;;;2.65;1.92;;;21.80;55.10;;;;;;5091134;28;20032;-53
2023/07/23 08:13:37;;;;;;;3.55;2.28;;;21.70;55.10;;;;;;5090617;28;20509;-60
2023/07/23 08:16:06;;;;;;;4.63;2.40;;;21.70;55.80;;;;;;5089304;28;20568;-60
2023/07/23 08:18:36;;;;;;;2.22;1.98;;;21.60;55.80;;;;;;5090241;28;20068;-60
2023/07/23 08:21:02;;;;;;;2.50;2.30;;;21.60;56.10;;;;;;5084825;28;20032;-60
2023/07/23 08:23:33;;;;;;;3.10;2.80;;;21.60;56.00;;;;;;5088706;28;20177;-60
2023/07/23 08:26:03;;;;;;;3.65;1.80;;;21.60;56.60;;;;;;5087026;28;20036;-60
2023/07/23 08:28:39;;;;;;;3.28;2.67;;;21.50;56.60;;;;;;5070575;28;20048;-60
2023/07/23 08:31:10;;;;;;;2.60;2.40;;;21.50;57.20;;;;;;5073385;28;20100;-60
2023/07/23 08:33:42;;;;;;;2.80;2.60;;;21.50;57.20;;;;;;5071782;28;20040;-59
2023/07/23 08:36:09;;;;;;;2.28;2.05;;;21.60;57.60;;;;;;5077507;28;20060;-60
2023/07/23 08:38:38;;;;;;;3.42;2.13;;;21.60;57.30;;;;;;5088477;28;20047;-60
2023/07/23 08:41:30;;;;;;;4.78;2.10;;;21.60;57.20;;;;;;5084677;28;20083;-60
2023/07/23 08:44:16;;;;;;;1.80;1.65;;;21.70;57.90;;;;;;5035172;28;20059;-57
2023/07/23 08:46:46;;;;;;;2.50;2.28;;;21.70;58.00;;;;;;5087689;28;20050;-60
2023/07/23 08:49:17;;;;;;;2.67;2.45;;;21.70;58.50;;;;;;5071962;28;20135;-59
2023/07/23 08:51:46;;;;;;;2.08;1.88;;;21.80;58.60;;;;;;5069253;28;20036;-60
2023/07/23 08:54:15;;;;;;;2.35;2.10;;;21.80;58.40;;;;;;5087416;28;20429;-60
2023/07/23 08:56:43;;;;;;;3.35;2.67;;;21.80;58.60;;;;;;5069673;28;20398;-60
2023/07/23 08:59:11;;;;;;;3.38;1.95;;;21.80;58.50;;;;;;5084058;28;20059;-60
2023/07/23 09:01:39;;;;;;;3.42;2.30;;;21.80;58.80;;;;;;5087258;28;20437;-60
2023/07/23 09:04:10;;;;;;;2.15;1.90;;;21.90;58.90;;;;;;5087204;28;20048;-60
2023/07/23 09:06:37;;;;;;;2.03;1.90;;;21.80;59.20;;;;;;5089569;28;20044;-60
2023/07/23 09:09:06;;;;;;;2.58;2.25;;;21.90;59.30;;;;;;5087895;28;20488;-60
2023/07/23 09:11:34;;;;;;;1.90;1.80;;;22.00;59.30;;;;;;5089537;28;20570;-59
2023/07/23 09:14:12;;;;;;;2.50;1.88;;;22.00;59.60;;;;;;5088012;28;20040;-60
2023/07/23 09:16:41;;;;;;;2.42;1.80;;;22.00;60.10;;;;;;5086690;28;20085;-60
2023/07/23 09:19:09;;;;;;;1.85;1.75;;;22.00;59.80;;;;;;5089371;28;20032;-60
2023/07/23 09:21:37;;;;;;;2.65;2.45;;;22.10;60.50;;;;;;5080496;28;20402;-62
2023/07/23 09:24:06;;;;;;;2.58;1.73;;;22.10;60.60;;;;;;5082580;28;20047;-61
2023/07/23 09:26:35;;;;;;;2.65;2.25;;;22.20;60.30;;;;;;5086148;28;20037;-60
2023/07/23 09:29:07;;;;;;;2.78;1.90;;;22.20;60.30;;;;;;5083836;28;20036;-61
2023/07/23 09:31:36;;;;;;;2.35;1.90;;;22.20;60.40;;;;;;5086963;28;20485;-61
2023/07/23 09:34:03;;;;;;;2.30;2.10;;;22.30;60.20;;;;;;5080091;28;20127;-60
2023/07/23 09:36:30;;;;;;;2.53;2.03;;;22.30;60.10;;;;;;5087515;28;20032;-61
2023/07/23 09:39:03;;;;;;;3.28;2.00;;;22.30;60.20;;;;;;5085614;28;20032;-60
2023/07/23 09:41:35;;;;;;;2.15;1.95;;;22.30;60.40;;;;;;5070822;28;20079;-61
2023/07/23 09:44:08;;;;;;;1.95;1.50;;;22.40;60.50;;;;;;5090429;28;20094;-60
2023/07/23 09:46:36;;;;;;;2.72;1.33;;;22.40;60.20;;;;;;5088589;28;20036;-60
2023/07/23 09:49:03;;;;;;;2.05;1.85;;;22.40;59.70;;;;;;5083784;28;20043;-59
2023/07/23 09:51:34;;;;;;;1.70;1.60;;;22.40;60.20;;;;;;5087248;28;20041;-60
2023/07/23 09:54:02;;;;;;;1.65;1.52;;;22.40;59.80;;;;;;5086450;28;20121;-59
2023/07/23 09:56:29;;;;;;;1.45;1.35;;;22.50;59.80;;;;;;5083472;28;20123;-60
2023/07/23 09:58:59;;;;;;;3.08;2.78;;;22.50;59.70;;;;;;5086949;28;20109;-60
2023/07/23 10:01:29;;;;;;;1.40;1.30;;;22.60;59.30;;;;;;5088562;28;20043;-60
2023/07/23 10:03:58;;;;;;;1.65;1.55;;;22.60;59.20;;;;;;5090137;28;20101;-60
2023/07/23 10:06:25;;;;;;;1.40;1.30;;;22.70;59.30;;;;;;5088682;28;20494;-59
2023/07/23 10:08:52;;;;;;;1.55;1.45;;;22.70;59.00;;;;;;5087376;28;20051;-60
2023/07/23 10:11:19;;;;;;;2.15;1.20;;;22.80;58.80;;;;;;5088297;28;20051;-60
2023/07/23 10:13:48;;;;;;;2.55;1.67;;;22.80;58.80;;;;;;5090129;28;20044;-60
2023/07/23 10:16:37;;;;;;;2.35;1.70;;;22.80;58.50;;;;;;5086033;28;20408;-59
2023/07/23 10:19:05;;;;;;;1.23;1.13;;;22.90;58.80;;;;;;5088579;28;20047;-60
2023/07/23 10:21:36;;;;;;;1.45;1.35;;;22.90;58.70;;;;;;5087872;28;20032;-61
2023/07/23 10:24:03;;;;;;;0.95;0.95;;;23.00;58.20;;;;;;5086665;28;20623;-60
2023/07/23 10:26:42;;;;;;;2.22;1.50;;;23.00;58.70;;;;;;5086807;28;20531;-60
2023/07/23 10:29:11;;;;;;;1.15;0.95;;;23.00;58.50;;;;;;5082755;28;20115;-60
2023/07/23 10:31:39;;;;;;;2.17;1.20;;;23.10;58.40;;;;;;5087999;28;20053;-60
2023/07/23 10:34:26;;;;;;;1.48;1.38;;;23.20;58.30;;;;;;5090631;28;20452;-60
2023/07/23 10:37:13;;;;;;;1.25;1.15;;;23.30;58.60;;;;;;5071019;28;20049;-60
2023/07/23 10:39:59;;;;;;;4.13;2.15;;;23.40;57.80;;;;;;5086690;28;20089;-60
2023/07/23 10:42:33;;;;;;;1.38;1.25;;;23.50;57.40;;;;;;5071646;28;20105;-60
2023/07/23 10:45:24;;;;;;;1.70;1.10;;;23.50;57.00;;;;;;5093417;28;20464;-60
2023/07/23 10:47:55;;;;;;;1.35;1.08;;;23.60;56.90;;;;;;5085980;28;20119;-60
2023/07/23 10:50:22;;;;;;;2.33;1.40;;;23.60;56.70;;;;;;5087879;28;20036;-60
2023/07/23 10:52:51;;;;;;;1.40;1.30;;;23.60;56.80;;;;;;5091265;28;20127;-60
2023/07/23 10:55:39;;;;;;;1.63;1.40;;;23.70;56.50;;;;;;5088237;28;20044;-61
2023/07/23 10:58:22;;;;;;;1.42;1.20;;;23.70;56.60;;;;;;5090735;28;20039;-60
2023/07/23 11:00:51;;;;;;;;;;;23.70;56.40;;;;;;5089465;28;20055;-60
2023/07/23 11:03:21;;;;;;;1.15;1.08;;;23.80;56.20;;;;;;5090108;28;19927;-60
2023/07/23 11:05:50;;;;;;;2.42;1.10;;;23.80;56.00;;;;;;5074164;28;20094;-60
2023/07/23 11:08:25;;;;;;;2.33;1.33;;;23.90;56.10;;;;;;5090606;28;20074;-60
2023/07/23 11:11:01;;;;;;;0.80;0.80;;;23.90;56.40;;;;;;5091786;28;20052;-60
2023/07/23 11:13:33;;;;;;;1.00;1.00;;;23.90;56.50;;;;;;5087611;28;20059;-59
2023/07/23 11:16:02;;;;;;;1.02;1.00;;;23.90;57.00;;;;;;5092167;28;20044;-61
2023/07/23 11:18:32;;;;;;;1.77;1.25;;;23.90;56.50;;;;;;5073699;28;20044;-59
2023/07/23 11:21:05;;;;;;;1.23;1.13;;;23.80;56.20;;;;;;5091177;28;20036;-60
2023/07/23 11:23:33;;;;;;;0.98;0.98;;;23.80;56.80;;;;;;5075305;28;20063;-59
2023/07/23 11:26:00;;;;;;;4.00;2.05;;;23.70;56.50;;;;;;5091917;28;20044;-60
2023/07/23 11:28:27;;;;;;;2.53;1.08;;;23.70;56.50;;;;;;5064972;28;20509;-60
2023/07/23 11:30:55;;;;;;;1.52;1.23;;;23.60;56.70;;;;;;5088911;28;20072;-60
2023/07/23 11:33:22;;;;;;;1.38;1.20;;;23.50;56.90;;;;;;5092602;28;20040;-60
2023/07/23 11:35:49;;;;;;;1.48;0.82;;;23.50;56.80;;;;;;5091714;28;20052;-60
2023/07/23 11:38:15;;;;;;;1.35;1.25;;;23.50;56.80;;;;;;5091221;28;20032;-60
2023/07/23 11:40:52;;;;;;;1.83;1.00;;;23.40;57.00;;;;;;5083436;28;20040;-60
2023/07/23 11:43:19;;;;;;;1.00;1.00;;;23.40;57.40;;;;;;5083723;28;20032;-60
2023/07/23 11:45:49;;;;;;;1.20;1.10;;;23.40;57.50;;;;;;5090060;28;20086;-59
2023/07/23 11:48:17;;;;;;;1.10;1.00;;;23.30;57.50;;;;;;5084258;28;20044;-59
2023/07/23 11:50:48;;;;;;;2.08;1.15;;;23.30;57.60;;;;;;5089131;28;20044;-60
2023/07/23 11:53:30;;;;;;;2.42;1.60;;;23.30;57.80;;;;;;5087602;28;20067;-60
2023/07/23 11:56:09;;;;;;;2.13;1.13;;;23.30;58.00;;;;;;5088873;28;20129;-60
2023/07/23 11:58:36;;;;;;;1.90;1.13;;;23.30;58.40;;;;;;5085608;28;20046;-60
2023/07/23 12:01:05;;;;;;;1.27;1.17;;;23.30;58.40;;;;;;5090765;28;20051;-60
2023/07/23 12:03:42;;;;;;;1.90;1.15;;;23.30;58.70;;;;;;5086878;28;20040;-60
2023/07/23 12:06:12;;;;;;;0.95;0.95;;;23.30;58.70;;;;;;5081034;28;20123;-60
2023/07/23 12:08:39;;;;;;;1.15;1.05;;;23.30;58.30;;;;;;5084269;28;20078;-60
2023/07/23 12:11:13;;;;;;;0.90;0.85;;;23.30;58.20;;;;;;5083256;28;20503;-60
2023/07/23 12:13:54;;;;;;;1.80;1.00;;;23.30;58.40;;;;;;5066730;28;20102;-60
2023/07/23 12:16:37;;;;;;;1.25;1.08;;;23.30;58.40;;;;;;5089331;28;20394;-60
2023/07/23 12:19:05;;;;;;;1.25;1.17;;;23.40;58.70;;;;;;5086812;28;20037;-60
2023/07/23 12:21:35;;;;;;;1.05;0.95;;;23.40;58.40;;;;;;5081526;28;20078;-60
2023/07/23 12:24:17;;;;;;;0.80;0.80;;;23.40;58.30;;;;;;5085895;28;20040;-60
2023/07/23 12:26:47;;;;;;;0.90;0.90;;;23.50;58.40;;;;;;5079204;28;20494;-60
2023/07/23 12:29:14;;;;;;;0.75;0.75;;;23.60;58.30;;;;;;5079473;28;20058;-61
2023/07/23 12:31:46;;;;;;;1.40;1.30;;;23.70;58.30;;;;;;5082352;28;20044;-60
2023/07/23 12:34:14;;;;;;;1.30;1.20;;;23.80;58.10;;;;;;5080830;28;20048;-60
2023/07/23 12:36:41;;;;;;;1.17;1.17;;;24.00;58.10;;;;;;5061638;28;20074;-61
2023/07/23 12:39:09;;;;;;;0.98;0.98;;;24.20;57.70;;;;;;5081763;28;20432;-60
2023/07/23 12:41:36;;;;;;;1.02;0.90;;;24.30;57.00;;;;;;5086210;28;20100;-60
2023/07/23 12:44:04;;;;;;;1.90;1.05;;;24.50;56.50;;;;;;5091673;28;20051;-60
2023/07/23 12:46:31;;;;;;;0.90;0.90;;;24.60;56.40;;;;;;5085527;28;20052;-60
2023/07/23 12:48:58;;;;;;;1.30;1.00;;;24.70;56.20;;;;;;5088687;28;20047;-60
2023/07/23 12:51:24;;;;;;;1.10;0.98;;;24.70;55.80;;;;;;5089940;28;20097;-60
2023/07/23 12:53:51;;;;;;;1.33;1.05;;;24.80;55.50;;;;;;5090627;28;20134;-60
2023/07/23 12:56:18;;;;;;;1.45;1.35;;;24.90;55.70;;;;;;5087588;28;20043;-60
2023/07/23 12:58:45;;;;;;;2.08;1.08;;;25.00;55.90;;;;;;5087894;28;20123;-60